Time;durP1;ratioP1;P1;durP2;ratioP2;P2;SDS_P1;SDS_P2;PMS_P1;PMS_P2;Temp;Humidity;BMP_temperature;BMP_pressure;BME280_temperature;BME280_humidity;BME280_pressure;Samples;Min_cycle;Max_cycle;Signal;HPM_P1;HPM_P2
2022/07/20 00:00:07;;;;;;;5.75;4.15;;;;;;;27.91;29.58;101137.69;5006966;28;119163;-81
2022/07/20 00:02:37;;;;;;;6.40;4.30;;;;;;;27.89;29.24;101135.16;5000618;28;123879;-81
2022/07/20 00:05:05;;;;;;;6.03;4.57;;;;;;;27.88;29.60;101132.59;5007935;28;124265;-81
2022/07/20 00:07:32;;;;;;;7.25;4.47;;;;;;;27.86;29.47;101140.06;5005491;28;118944;-81
2022/07/20 00:12:45;;;;;;;11.75;4.72;;;;;;;27.79;29.05;101133.66;5002617;28;124323;-81
2022/07/20 00:15:12;;;;;;;8.52;5.15;;;;;;;27.75;29.08;101139.44;4989207;28;123152;-81
2022/07/20 00:17:39;;;;;;;7.10;4.90;;;;;;;27.70;29.24;101130.94;4986056;28;120375;-81
2022/07/20 00:20:07;;;;;;;7.47;5.50;;;;;;;27.65;29.75;101127.91;5004212;28;118909;-81
2022/07/20 00:22:34;;;;;;;8.45;5.30;;;;;;;27.60;29.32;101135.72;5003270;28;124113;-81
2022/07/20 00:25:03;;;;;;;7.75;5.20;;;;;;;27.54;29.59;101125.56;5006016;28;124706;-81
2022/07/20 00:27:30;;;;;;;7.90;5.32;;;;;;;27.49;29.52;101127.94;5002309;28;118230;-81
2022/07/20 00:29:57;;;;;;;7.55;5.60;;;;;;;27.44;29.83;101130.31;5004301;28;119317;-82
2022/07/20 00:32:24;;;;;;;6.63;5.18;;;;;;;27.41;29.86;101131.53;4987232;28;123164;-81
2022/07/20 00:34:52;;;;;;;6.55;5.35;;;;;;;27.35;29.96;101122.19;5004804;28;124758;-81
2022/07/20 00:37:21;;;;;;;9.20;5.40;;;;;;;27.30;29.81;101130.00;5009321;28;120010;-81
2022/07/20 00:39:48;;;;;;;7.35;4.97;;;;;;;27.25;30.13;101121.50;5009436;28;119257;-81
2022/07/20 00:42:15;;;;;;;11.52;5.47;;;;;;;27.20;30.50;101126.59;5004974;28;122504;-81
2022/07/20 00:44:42;;;;;;;6.97;5.22;;;;;;;27.14;30.69;101119.09;5007489;28;123552;-82
2022/07/20 00:47:09;;;;;;;6.93;4.90;;;;;;;27.10;30.61;101117.75;5005664;28;119663;-82
2022/07/20 00:49:37;;;;;;;7.28;5.45;;;;;;;27.06;30.96;101116.41;5003545;28;118736;-82
2022/07/20 00:52:04;;;;;;;6.55;5.07;;;;;;;27.00;31.00;101117.94;5004136;28;124061;-81
2022/07/20 00:54:31;;;;;;;7.22;5.22;;;;;;;26.95;31.03;101121.13;5009626;28;124101;-81
2022/07/20 00:56:59;;;;;;;6.85;4.97;;;;;;;26.91;30.95;101114.34;4982371;28;118358;-81
2022/07/20 00:59:26;;;;;;;7.60;5.15;;;;;;;26.85;30.91;101115.03;5005922;28;119034;-81
2022/07/20 01:01:54;;;;;;;7.45;5.65;;;;;;;26.79;31.14;101110.28;4990554;28;123688;-82
2022/07/20 01:04:22;;;;;;;7.47;5.40;;;;;;;26.75;31.12;101111.66;4984718;28;124244;-81
2022/07/20 01:06:49;;;;;;;7.20;5.10;;;;;;;26.69;31.43;101113.16;5005566;28;120919;-81
2022/07/20 01:09:20;;;;;;;8.05;5.25;;;;;;;26.63;32.04;101113.81;4984526;28;118950;-83
2022/07/20 01:11:48;;;;;;;6.72;5.25;;;;;;;26.58;32.22;101119.75;5001000;28;123582;-83
2022/07/20 01:14:15;;;;;;;11.80;5.82;;;;;;;26.52;32.21;101112.25;4999787;28;122037;-79
2022/07/20 01:16:42;;;;;;;7.38;5.32;;;;;;;26.47;32.43;101111.91;5006280;28;119007;-79
2022/07/20 01:19:09;;;;;;;9.23;5.07;;;;;;;26.43;32.53;101110.53;5007837;28;118831;-79
2022/07/20 01:21:43;;;;;;;6.35;5.00;;;;;;;26.38;32.99;101118.34;5005850;28;123610;-79
2022/07/20 01:24:12;;;;;;;6.47;5.00;;;;;;;26.33;32.69;101120.69;4986397;28;123219;-79
2022/07/20 01:26:41;;;;;;;8.45;5.10;;;;;;;26.25;32.74;101123.41;4987950;28;119641;-79
2022/07/20 01:29:09;;;;;;;8.98;4.55;;;;;;;26.18;33.01;101129.50;4988729;28;118320;-79
2022/07/20 01:31:36;;;;;;;8.43;5.05;;;;;;;26.12;33.34;101130.13;4989183;28;123341;-79
2022/07/20 01:34:03;;;;;;;8.55;4.95;;;;;;;26.06;33.23;101124.53;4976238;28;123289;-79
2022/07/20 01:36:31;;;;;;;13.68;5.55;;;;;;;26.00;33.78;101120.59;4994783;28;119315;-79
2022/07/20 01:38:58;;;;;;;8.05;4.40;;;;;;;25.96;34.14;101121.94;4990328;28;119619;-79
2022/07/20 01:41:26;;;;;;;7.78;5.32;;;;;;;25.91;34.36;101122.38;5007933;28;124417;-79
2022/07/20 01:43:53;;;;;;;7.07;4.95;;;;;;;25.88;34.42;101132.72;5006338;28;124846;-79
2022/07/20 01:46:20;;;;;;;8.27;4.93;;;;;;;25.81;34.89;101130.66;5007501;28;119975;-79
2022/07/20 01:48:47;;;;;;;9.57;5.13;;;;;;;25.77;34.71;101126.56;5007867;28;118926;-79
2022/07/20 01:51:15;;;;;;;6.47;5.15;;;;;;;25.72;34.71;101138.91;5007202;28;124097;-79
2022/07/20 01:53:42;;;;;;;7.30;4.63;;;;;;;25.63;35.10;101140.72;4976884;28;123148;-79
2022/07/20 01:56:09;;;;;;;7.18;4.90;;;;;;;25.54;35.22;101125.41;4988684;28;119566;-79
2022/07/20 01:58:36;;;;;;;8.93;4.75;;;;;;;25.51;35.33;101139.31;5006629;28;119535;-79
2022/07/20 02:01:03;;;;;;;5.30;4.45;;;;;;;25.47;35.46;101149.63;5006921;28;124781;-79
2022/07/20 02:03:30;;;;;;;5.78;4.65;;;;;;;25.41;35.72;101175.50;5006620;28;123978;-79
2022/07/20 02:05:58;;;;;;;6.82;5.40;;;;;;;25.34;35.26;101163.59;5007911;28;119947;-79
2022/07/20 02:08:25;;;;;;;9.45;5.35;;;;;;;25.30;35.47;101172.19;4972386;28;119593;-79
2022/07/20 02:10:52;;;;;;;7.22;5.70;;;;;;;25.26;35.33;101171.66;4976572;28;124300;-79
2022/07/20 02:13:19;;;;;;;8.70;5.80;;;;;;;25.27;35.24;101173.34;4988284;28;123009;-79
2022/07/20 02:18:32;;;;;;;8.27;5.72;;;;;;;25.27;35.14;101157.09;4984883;28;118472;-79
2022/07/20 02:20:59;;;;;;;8.77;5.95;;;;;;;25.30;34.91;101155.91;5007467;28;124067;-79
2022/07/20 02:23:26;;;;;;;9.38;5.90;;;;;;;25.32;34.94;101154.75;4991735;28;121806;-79
2022/07/20 02:25:53;;;;;;;7.88;5.90;;;;;;;25.35;34.76;101149.00;5007951;28;119392;-79
2022/07/20 02:28:21;;;;;;;9.20;6.05;;;;;;;25.38;34.86;101148.69;5015438;28;118981;-79
2022/07/20 02:30:48;;;;;;;11.13;6.13;;;;;;;25.39;34.70;101142.28;5025534;28;124341;-79
2022/07/20 02:33:15;;;;;;;8.38;5.95;;;;;;;25.38;34.77;101143.28;5007784;28;122990;-79
2022/07/20 02:35:42;;;;;;;9.32;5.93;;;;;;;25.35;35.25;101146.28;5025978;28;119847;-79
2022/07/20 02:38:09;;;;;;;9.23;6.13;;;;;;;25.31;35.31;101142.19;5004674;28;117299;-79
2022/07/20 02:40:36;;;;;;;9.52;6.15;;;;;;;25.28;35.46;101142.53;4997512;28;123112;-79
2022/07/20 02:43:05;;;;;;;10.75;5.70;;;;;;;25.22;35.58;101141.28;5014939;28;124888;-79
2022/07/20 02:45:32;;;;;;;10.00;6.13;;;;;;;25.17;35.79;101140.03;4981274;28;119420;-79
2022/07/20 02:48:05;;;;;;;9.95;6.18;;;;;;;25.11;35.72;101140.66;5012247;28;119828;-79
2022/07/20 02:50:36;;;;;;;8.35;5.90;;;;;;;25.02;35.97;101142.47;4992161;28;123160;-79
2022/07/20 02:53:05;;;;;;;10.98;6.13;;;;;;;24.94;36.17;101140.53;5010077;28;124031;-79
2022/07/20 02:55:32;;;;;;;11.70;6.10;;;;;;;24.88;36.16;101130.28;4991960;28;118510;-79
2022/07/20 02:57:59;;;;;;;8.80;6.22;;;;;;;24.82;36.77;101136.34;5007179;28;118771;-79
2022/07/20 03:00:27;;;;;;;8.60;6.32;;;;;;;24.77;36.64;101154.91;4996151;28;124121;-79
2022/07/20 03:02:54;;;;;;;11.30;5.85;;;;;;;24.67;36.73;101166.66;5002322;28;123948;-79
2022/07/20 03:05:21;;;;;;;9.27;5.88;;;;;;;24.60;36.89;101175.56;5012002;28;118679;-79
2022/07/20 03:07:48;;;;;;;7.38;5.90;;;;;;;24.53;36.87;101169.91;5004656;28;118068;-78
2022/07/20 03:10:15;;;;;;;9.30;5.43;;;;;;;24.49;37.03;101173.91;5031390;28;122236;-79
2022/07/20 03:12:43;;;;;;;11.35;5.80;;;;;;;24.46;36.71;101163.38;5014925;28;123769;-79
2022/07/20 03:15:10;;;;;;;8.40;5.47;;;;;;;24.45;36.87;101172.50;4997477;28;118867;-79
2022/07/20 03:17:41;;;;;;;10.45;5.57;;;;;;;24.44;36.89;101181.63;4994384;28;117743;-79
2022/07/20 03:20:11;;;;;;;8.95;5.60;;;;;;;24.42;37.01;101186.34;4995176;28;122323;-79
2022/07/20 03:22:40;;;;;;;7.35;5.60;;;;;;;24.39;36.85;101190.22;5010561;28;123891;-79
2022/07/20 03:25:08;;;;;;;9.30;5.78;;;;;;;24.42;37.00;101189.06;4981984;28;119884;-79
2022/07/20 03:27:35;;;;;;;8.25;5.65;;;;;;;24.43;36.97;101185.31;4977411;28;118682;-79
2022/07/20 03:30:04;;;;;;;9.07;5.80;;;;;;;24.45;36.94;101191.47;4990080;28;122148;-79
2022/07/20 03:32:32;;;;;;;7.00;6.05;;;;;;;24.48;37.05;101193.84;4998937;28;123782;-79
2022/07/20 03:34:59;;;;;;;10.57;6.50;;;;;;;24.52;36.99;101199.84;4994339;28;119822;-79
2022/07/20 03:37:27;;;;;;;10.20;6.45;;;;;;;24.55;37.00;101211.25;5008874;28;118050;-79
2022/07/20 03:39:54;;;;;;;10.63;6.43;;;;;;;24.59;37.05;101207.22;5009373;28;124358;-79
2022/07/20 03:42:21;;;;;;;10.18;6.53;;;;;;;24.60;36.84;101197.22;5003119;28;123677;-79
2022/07/20 03:44:48;;;;;;;9.35;6.32;;;;;;;24.63;36.87;101203.19;4989103;28;119036;-79
2022/07/20 03:47:15;;;;;;;10.18;6.43;;;;;;;24.65;36.91;101220.16;4989684;28;117911;-79
2022/07/20 03:49:42;;;;;;;12.25;6.25;;;;;;;24.66;37.14;101224.56;4999110;28;123472;-79
2022/07/20 03:52:10;;;;;;;8.88;6.10;;;;;;;24.65;37.05;101224.72;5011613;28;122928;-79
2022/07/20 03:54:37;;;;;;;9.07;6.43;;;;;;;24.65;37.28;101239.09;4992622;28;118496;-80
2022/07/20 03:57:05;;;;;;;8.27;6.00;;;;;;;24.63;37.21;101235.69;5003322;28;119105;-80
2022/07/20 03:59:33;;;;;;;12.60;6.63;;;;;;;24.60;37.37;101236.03;4993544;28;123270;-79
2022/07/20 04:02:00;;;;;;;9.27;6.47;;;;;;;24.59;37.25;101237.00;4995621;28;123790;-79
2022/07/20 04:04:28;;;;;;;10.68;7.85;;;;;;;24.57;37.71;101247.16;4975333;28;118235;-79
2022/07/20 04:06:56;;;;;;;11.98;6.93;;;;;;;24.57;37.57;101249.84;4972461;28;118258;-79
2022/07/20 04:12:12;;;;;;;13.20;6.90;;;;;;;24.55;37.69;101253.72;4983430;28;122632;-78
2022/07/20 04:14:40;;;;;;;10.70;7.90;;;;;;;24.55;37.89;101262.69;5007154;28;119250;-79
2022/07/20 04:17:07;;;;;;;10.68;7.68;;;;;;;24.55;37.93;101265.41;4983479;28;117234;-79
2022/07/20 04:19:35;;;;;;;12.23;7.80;;;;;;;24.55;38.07;101278.94;4991746;28;123236;-79
2022/07/20 04:22:02;;;;;;;13.77;8.32;;;;;;;24.55;38.13;101284.34;4976736;28;122591;-79
2022/07/20 04:24:30;;;;;;;12.85;8.40;;;;;;;24.54;38.50;101285.34;4998144;28;120791;-79
2022/07/20 04:26:57;;;;;;;13.60;10.00;;;;;;;24.54;38.78;101288.06;4996461;28;118796;-79
2022/07/20 04:29:24;;;;;;;15.80;10.00;;;;;;;24.55;39.01;101297.91;4994941;28;124349;-79
2022/07/20 04:31:52;;;;;;;15.95;11.30;;;;;;;24.57;39.53;101295.06;5009719;28;124083;-79
2022/07/20 04:34:19;;;;;;;15.55;11.43;;;;;;;24.57;39.56;101295.06;4993269;28;117496;-80
2022/07/20 04:36:46;;;;;;;18.27;12.52;;;;;;;24.58;39.94;101297.63;4998561;28;118252;-79
2022/07/20 04:39:13;;;;;;;18.17;12.93;;;;;;;24.60;40.37;101297.44;4985134;28;123393;-78
2022/07/20 04:41:40;;;;;;;18.90;14.15;;;;;;;24.62;40.63;101304.44;5008859;28;124294;-79
2022/07/20 04:44:08;;;;;;;19.38;14.65;;;;;;;24.64;41.19;101302.44;5007901;28;119154;-79
2022/07/20 04:46:35;;;;;;;21.08;14.68;;;;;;;24.66;41.30;101305.84;5008229;28;118968;-78
2022/07/20 04:49:03;;;;;;;20.30;15.23;;;;;;;24.71;41.62;101312.66;5001756;28;122748;-81
2022/07/20 04:51:30;;;;;;;25.08;16.02;;;;;;;24.74;41.80;101312.38;4976811;28;123120;-83
2022/07/20 04:53:57;;;;;;;24.25;16.52;;;;;;;24.81;42.32;101308.06;4984094;28;118196;-83
2022/07/20 04:56:24;;;;;;;22.02;17.83;;;;;;;24.91;42.59;101308.84;4981062;28;118714;-83
2022/07/20 04:58:53;;;;;;;27.88;17.98;;;;;;;25.02;42.99;101322.19;5009586;28;124809;-83
2022/07/20 05:01:21;;;;;;;27.08;18.17;;;;;;;25.12;42.83;101321.28;4990435;28;121980;-83
2022/07/20 05:03:48;;;;;;;28.88;18.95;;;;;;;25.21;42.92;101325.78;4992192;28;117935;-82
2022/07/20 05:06:15;;;;;;;27.75;19.13;;;;;;;25.28;43.21;101332.31;4989502;28;118500;-82
2022/07/20 05:08:43;;;;;;;29.50;19.77;;;;;;;25.35;43.29;101327.97;4990293;28;123637;-82
2022/07/20 05:11:10;;;;;;;31.08;20.30;;;;;;;25.42;43.49;101331.78;5009338;28;125056;-83
2022/07/20 05:13:39;;;;;;;28.70;20.30;;;;;;;25.51;43.77;101342.72;5008571;28;120078;-83
2022/07/20 05:16:06;;;;;;;28.83;21.30;;;;;;;25.58;43.96;101343.78;4976250;28;119154;-83
2022/07/20 05:18:33;;;;;;;30.83;22.02;;;;;;;25.66;44.00;101343.88;5009671;28;123924;-83
2022/07/20 05:21:01;;;;;;;31.45;20.45;;;;;;;25.73;43.89;101342.25;4992112;28;122826;-83
2022/07/20 05:23:28;;;;;;;31.45;21.80;;;;;;;25.79;44.04;101341.63;4992331;28;118818;-83
2022/07/20 05:25:55;;;;;;;30.45;22.00;;;;;;;25.84;44.38;101333.00;4993207;28;118933;-83
2022/07/20 05:28:23;;;;;;;34.65;21.35;;;;;;;25.89;44.27;101332.53;4991134;28;122149;-83
2022/07/20 05:30:50;;;;;;;36.83;22.60;;;;;;;25.94;44.55;101322.09;5008575;28;123486;-83
2022/07/20 05:33:19;;;;;;;31.48;22.27;;;;;;;25.99;44.67;101333.31;4992611;28;119010;-83
2022/07/20 05:35:49;;;;;;;29.83;21.90;;;;;;;26.05;44.41;101324.56;5007596;28;118932;-83
2022/07/20 05:38:17;;;;;;;27.13;20.73;;;;;;;26.10;44.33;101326.78;4965287;28;122898;-83
2022/07/20 05:40:45;;;;;;;27.85;19.70;;;;;;;26.14;44.42;101323.56;4974687;28;123173;-83
2022/07/20 05:43:12;;;;;;;27.77;20.58;;;;;;;26.22;44.71;101337.22;4980522;28;118530;-83
2022/07/20 05:45:40;;;;;;;28.83;21.08;;;;;;;26.28;44.78;101335.72;4992436;28;118271;-83
2022/07/20 05:48:12;;;;;;;30.73;20.08;;;;;;;26.32;44.63;101341.69;5007112;28;122803;-83
2022/07/20 05:50:41;;;;;;;25.67;19.00;;;;;;;26.38;44.67;101351.91;4979383;28;122958;-83
2022/07/20 05:53:09;;;;;;;31.13;20.15;;;;;;;26.42;44.55;101358.72;4974740;28;118776;-83
2022/07/20 05:55:38;;;;;;;26.40;19.45;;;;;;;26.46;44.66;101365.53;4993068;28;119697;-83
2022/07/20 05:58:06;;;;;;;29.08;19.63;;;;;;;26.52;44.30;101381.22;4976923;28;123573;-83
2022/07/20 06:00:34;;;;;;;29.58;19.55;;;;;;;26.56;44.49;101382.59;4992079;28;124132;-83
2022/07/20 06:03:03;;;;;;;27.55;21.02;;;;;;;26.61;44.35;101380.25;4979298;28;119314;-83
2022/07/20 06:05:30;;;;;;;26.48;19.63;;;;;;;26.66;44.08;101392.53;4982766;28;120722;-83
2022/07/20 06:08:00;;;;;;;25.83;18.58;;;;;;;26.69;44.09;101397.63;5005271;28;124374;-83
2022/07/20 06:10:32;;;;;;;24.90;18.58;;;;;;;26.71;44.24;101406.47;4966638;28;122502;-82
2022/07/20 06:13:00;;;;;;;28.25;18.65;;;;;;;26.77;44.20;101403.97;5007239;28;118728;-83
2022/07/20 06:15:36;;;;;;;23.95;18.48;;;;;;;26.84;44.08;101401.44;5007915;28;120126;-83
2022/07/20 06:18:03;;;;;;;25.33;17.17;;;;;;;26.88;43.85;101413.72;4975115;28;123570;-82
2022/07/20 06:20:30;;;;;;;21.90;16.33;;;;;;;26.92;43.77;101415.09;4995011;28;124266;-83
2022/07/20 06:22:59;;;;;;;24.35;17.00;;;;;;;26.97;43.51;101429.06;4995083;28;118488;-83
2022/07/20 06:25:26;;;;;;;24.73;15.80;;;;;;;27.03;43.71;101432.13;4994818;28;119706;-83
2022/07/20 06:27:56;;;;;;;21.50;15.75;;;;;;;27.12;43.67;101447.44;4993563;28;123554;-82
2022/07/20 06:30:23;;;;;;;23.70;15.90;;;;;;;27.22;43.59;101431.88;5012955;28;123107;-83
2022/07/20 06:32:50;;;;;;;23.33;14.70;;;;;;;27.32;43.23;101454.38;4979962;28;120388;-83
2022/07/20 06:35:18;;;;;;;20.73;13.98;;;;;;;27.45;43.17;101458.50;5011597;28;118144;-83
2022/07/20 06:37:45;;;;;;;21.02;14.02;;;;;;;27.56;43.01;101467.22;5007438;28;124171;-83
2022/07/20 06:40:12;;;;;;;21.52;14.25;;;;;;;27.72;42.93;101460.94;4985414;28;122848;-83
2022/07/20 06:42:39;;;;;;;18.65;13.10;;;;;;;27.86;42.67;101461.31;5011231;28;119234;-82
2022/07/20 06:45:06;;;;;;;18.92;13.38;;;;;;;27.99;42.65;101477.19;4994798;28;118480;-82
2022/07/20 06:47:34;;;;;;;22.20;12.77;;;;;;;28.11;42.50;101493.03;5012218;28;124679;-82
2022/07/20 06:50:03;;;;;;;19.27;13.48;;;;;;;28.22;42.15;101493.72;4987418;28;123491;-82
2022/07/20 06:52:32;;;;;;;19.05;12.18;;;;;;;28.29;41.79;101489.28;4992720;28;119444;-81
2022/07/20 06:54:59;;;;;;;18.40;13.35;;;;;;;28.36;41.40;101501.22;5010042;28;118442;-81
2022/07/20 06:57:26;;;;;;;22.83;13.20;;;;;;;28.38;41.16;101511.97;5012970;28;123185;-82
2022/07/20 06:59:53;;;;;;;19.17;12.15;;;;;;;28.40;41.09;101513.47;4991443;28;123360;-82
2022/07/20 07:02:20;;;;;;;15.27;11.95;;;;;;;28.42;41.13;101532.38;4985277;28;118089;-82
2022/07/20 07:04:50;;;;;;;18.02;12.07;;;;;;;28.44;41.20;101531.19;4994543;28;118211;-82
2022/07/20 07:07:17;;;;;;;18.33;12.48;;;;;;;28.43;40.94;101534.94;5011572;28;125596;-82
2022/07/20 07:09:44;;;;;;;14.98;11.20;;;;;;;28.43;40.89;101534.94;4998652;28;123477;-82
2022/07/20 07:12:12;;;;;;;15.10;11.02;;;;;;;28.44;40.92;101535.78;4993823;28;119109;-83
2022/07/20 07:14:39;;;;;;;18.05;10.73;;;;;;;28.51;40.65;101524.03;4977215;28;117305;-82
2022/07/20 07:17:06;;;;;;;16.85;10.90;;;;;;;28.60;40.66;101551.34;4992474;28;122968;-82
2022/07/20 07:19:33;;;;;;;16.02;11.05;;;;;;;28.69;40.73;101555.78;5012905;28;123906;-82
2022/07/20 07:22:01;;;;;;;17.85;10.13;;;;;;;28.79;40.35;101561.91;5017375;28;119784;-82
2022/07/20 07:24:28;;;;;;;14.35;10.07;;;;;;;28.91;40.23;101565.09;5014181;28;118391;-82
2022/07/20 07:26:55;;;;;;;15.55;9.80;;;;;;;29.04;40.31;101570.03;4996859;28;122189;-81
2022/07/20 07:29:24;;;;;;;14.05;9.75;;;;;;;29.16;40.25;101574.16;4989823;28;122509;-82
2022/07/20 07:31:53;;;;;;;18.70;10.07;;;;;;;29.26;40.07;101574.81;5003383;28;118899;-82
2022/07/20 07:34:20;;;;;;;15.32;9.68;;;;;;;29.34;39.86;101592.19;5007048;28;118995;-82
2022/07/20 07:36:47;;;;;;;14.85;9.70;;;;;;;29.38;39.72;101609.91;5020653;28;124502;-83
2022/07/20 07:39:14;;;;;;;14.57;9.82;;;;;;;29.34;39.47;101620.31;5000482;28;123340;-83
2022/07/20 07:41:42;;;;;;;13.57;9.25;;;;;;;29.27;39.10;101613.84;5000249;28;120722;-82
2022/07/20 07:44:09;;;;;;;13.77;9.68;;;;;;;29.16;39.37;101601.44;5000685;28;119168;-83
2022/07/20 07:46:36;;;;;;;14.85;9.63;;;;;;;29.05;39.74;101588.13;4984054;28;123073;-82
2022/07/20 07:49:04;;;;;;;15.32;9.48;;;;;;;28.99;39.62;101600.56;4986697;28;123193;-82
2022/07/20 07:51:32;;;;;;;11.55;9.45;;;;;;;28.93;39.83;101606.69;4983118;28;118668;-83
2022/07/20 07:53:59;;;;;;;14.75;9.43;;;;;;;28.88;39.90;101609.94;5016457;28;117229;-82
2022/07/20 07:56:26;;;;;;;14.52;9.73;;;;;;;28.88;39.90;101609.94;4982669;28;122238;-82
2022/07/20 07:58:53;;;;;;;15.70;9.52;;;;;;;28.90;40.08;101607.91;4999581;28;123905;-82
2022/07/20 08:01:41;;;;;;;14.05;9.60;;;;;;;28.90;39.90;101618.81;5011876;28;118613;-83
2022/07/20 08:04:08;;;;;;;13.98;9.57;;;;;;;28.92;39.94;101637.72;4988284;28;117210;-82
2022/07/20 08:06:36;;;;;;;12.48;9.70;;;;;;;28.87;39.90;101635.50;5007679;28;123629;-82
2022/07/20 08:09:04;;;;;;;16.08;9.73;;;;;;;28.84;39.92;101624.94;4998618;28;123909;-83
2022/07/20 08:11:31;;;;;;;12.82;9.40;;;;;;;28.91;40.36;101619.66;5016110;28;118376;-83
2022/07/20 08:14:02;;;;;;;14.48;9.68;;;;;;;29.05;40.93;101620.84;5003760;28;118564;-83
2022/07/20 08:16:32;;;;;;;14.88;9.48;;;;;;;29.23;40.51;101624.25;4981114;28;123278;-83
2022/07/20 08:19:00;;;;;;;12.32;8.77;;;;;;;29.41;40.29;101609.56;5016545;28;124093;-82
2022/07/20 08:21:27;;;;;;;14.38;9.00;;;;;;;29.55;39.80;101600.63;4979424;28;118683;-82
2022/07/20 08:24:02;;;;;;;14.52;9.48;;;;;;;29.69;39.44;101590.88;4980737;28;118424;-82
2022/07/20 08:26:30;;;;;;;15.35;8.60;;;;;;;29.83;39.40;101608.41;4995396;28;123682;-82
2022/07/20 08:28:57;;;;;;;12.07;9.05;;;;;;;29.94;39.17;101610.75;5010567;28;123331;-82
2022/07/20 08:31:24;;;;;;;11.82;9.23;;;;;;;29.98;38.57;101620.28;5009573;28;118299;-82
2022/07/20 08:33:51;;;;;;;12.13;8.88;;;;;;;30.01;38.60;101622.69;4992473;28;118570;-82
2022/07/20 08:36:19;;;;;;;12.05;8.32;;;;;;;30.07;38.83;101621.97;4992668;28;123383;-82
2022/07/20 08:38:47;;;;;;;17.02;9.02;;;;;;;30.18;38.42;101622.59;4992583;28;123564;-82
2022/07/20 08:41:15;;;;;;;13.88;8.27;;;;;;;30.28;38.40;101623.22;5009775;28;119148;-82
2022/07/20 08:43:43;;;;;;;14.15;7.90;;;;;;;30.38;38.43;101623.84;5011170;28;118097;-83
2022/07/20 08:46:13;;;;;;;11.95;8.57;;;;;;;30.50;38.26;101612.50;4992883;28;122769;-81
2022/07/20 08:48:42;;;;;;;12.50;8.30;;;;;;;30.59;38.05;101625.06;4994947;28;124420;-82
2022/07/20 08:51:09;;;;;;;9.85;7.97;;;;;;;30.67;38.11;101611.34;4993299;28;118266;-82
2022/07/20 08:53:37;;;;;;;11.25;7.85;;;;;;;30.77;37.78;101611.94;4994272;28;118141;-82
2022/07/20 08:56:09;;;;;;;13.30;8.32;;;;;;;30.88;38.26;101618.03;5009496;28;123951;-82
2022/07/20 08:58:36;;;;;;;13.10;7.93;;;;;;;31.01;37.88;101627.31;5010254;28;123575;-82
2022/07/20 09:01:05;;;;;;;11.57;7.60;;;;;;;31.18;37.35;101630.75;4998544;28;118440;-83
2022/07/20 09:03:32;;;;;;;10.65;7.80;;;;;;;31.31;36.96;101635.59;5013313;28;118714;-83
2022/07/20 09:06:05;;;;;;;12.18;7.60;;;;;;;31.41;36.88;101624.38;4993656;28;123302;-82
2022/07/20 09:08:34;;;;;;;9.60;7.28;;;;;;;31.48;36.61;101614.41;5008471;28;123698;-83
2022/07/20 09:11:02;;;;;;;10.02;8.00;;;;;;;31.51;36.37;101569.34;4973724;28;118870;-82
2022/07/20 09:13:32;;;;;;;10.48;7.50;;;;;;;31.54;35.85;101580.78;4983552;28;118745;-82
2022/07/20 09:15:59;;;;;;;12.63;7.80;;;;;;;31.56;35.97;101589.66;5007780;28;124681;-82
2022/07/20 09:18:29;;;;;;;11.35;7.65;;;;;;;31.60;36.62;101604.66;4988713;28;122700;-82
2022/07/20 09:21:00;;;;;;;9.68;7.60;;;;;;;31.71;35.77;101611.53;4994079;28;119301;-82
2022/07/20 09:23:33;;;;;;;12.98;7.45;;;;;;;31.82;35.96;101626.66;4998448;28;120213;-82
2022/07/20 09:26:02;;;;;;;11.38;7.40;;;;;;;31.86;35.83;101644.41;4974996;28;125624;-83
2022/07/20 09:28:51;;;;;;;9.82;7.30;;;;;;;31.88;35.14;101652.44;4968629;28;123109;-82
2022/07/20 09:31:21;;;;;;;9.93;7.50;;;;;;;31.92;35.62;101665.56;4976500;28;118417;-84
2022/07/20 09:34:15;;;;;;;11.52;7.50;;;;;;;32.01;35.19;101664.41;4995412;28;119570;-82
2022/07/20 09:36:47;;;;;;;9.55;7.35;;;;;;;32.12;35.16;101648.56;4967010;28;123586;-82
2022/07/20 09:39:22;;;;;;;9.85;6.95;;;;;;;32.20;35.18;101640.22;5002309;28;123721;-82
2022/07/20 09:41:53;;;;;;;9.38;7.03;;;;;;;32.28;35.08;101653.81;4987938;28;119121;-83
2022/07/20 09:44:23;;;;;;;10.65;7.07;;;;;;;32.40;35.46;101652.28;4983260;28;119150;-82
2022/07/20 09:46:52;;;;;;;11.73;7.10;;;;;;;32.52;35.46;101638.03;4980388;28;98963;-83
2022/07/20 09:49:21;;;;;;;11.73;7.50;;;;;;;32.59;34.50;101623.38;4989411;28;124846;-83
2022/07/20 09:51:58;;;;;;;8.93;7.05;;;;;;;32.63;34.22;101623.84;5000784;28;119273;-82
2022/07/20 09:54:45;;;;;;;10.20;6.72;;;;;;;32.67;34.29;101614.16;4982622;28;118305;-83
2022/07/20 09:57:12;;;;;;;11.68;7.25;;;;;;;32.72;34.01;101611.69;4985833;28;124598;-83
2022/07/20 09:59:46;;;;;;;8.93;6.45;;;;;;;32.79;34.36;101622.72;4999838;28;123499;-82
2022/07/20 10:02:14;;;;;;;9.65;6.70;;;;;;;32.86;33.73;101633.75;5014097;28;118454;-83
2022/07/20 10:04:44;;;;;;;9.82;6.63;;;;;;;32.84;33.56;101635.84;4981866;28;117710;-83
2022/07/20 10:07:12;;;;;;;10.23;7.03;;;;;;;32.83;33.37;101639.63;5002845;28;123294;-83
2022/07/20 10:09:39;;;;;;;10.90;7.43;;;;;;;32.77;33.11;101661.31;4977974;28;123515;-82
2022/07/20 10:12:06;;;;;;;10.98;7.32;;;;;;;32.69;32.97;101683.41;5004120;28;120077;-82
2022/07/20 10:14:34;;;;;;;8.77;7.13;;;;;;;32.63;33.50;101689.69;5009337;28;119727;-83
2022/07/20 10:17:02;;;;;;;11.57;6.95;;;;;;;32.60;33.62;101701.03;4977190;28;123009;-83
2022/07/20 10:19:45;;;;;;;10.55;7.57;;;;;;;32.58;33.78;101708.59;4982835;28;124261;-84
2022/07/20 10:22:13;;;;;;;11.57;7.72;;;;;;;32.55;33.32;101697.97;5000546;28;117453;-83
2022/07/20 10:24:43;;;;;;;10.32;6.80;;;;;;;32.53;33.42;101689.09;4976488;28;119238;-84
2022/07/20 10:27:16;;;;;;;9.02;6.85;;;;;;;32.53;33.66;101700.06;4992573;28;123183;-84
2022/07/20 10:29:49;;;;;;;10.02;7.07;;;;;;;32.49;33.65;101704.25;5001214;28;121779;-83
2022/07/20 10:32:25;;;;;;;7.70;6.53;;;;;;;32.40;33.50;101701.63;5012754;28;121280;-82
2022/07/20 10:34:57;;;;;;;8.95;6.80;;;;;;;32.37;34.02;101701.16;4977883;28;118122;-82
2022/07/20 10:37:25;;;;;;;10.40;7.50;;;;;;;32.33;33.57;101700.69;4978315;28;122738;-82
2022/07/20 10:40:30;;;;;;;9.77;7.10;;;;;;;32.27;33.83;101674.06;4978307;28;123127;-83
2022/07/20 10:43:15;;;;;;;8.20;7.03;;;;;;;32.22;34.30;101687.47;4982967;28;119224;-82
2022/07/20 10:45:43;;;;;;;8.93;6.97;;;;;;;32.28;33.87;101681.22;4986337;28;118951;-82
2022/07/20 10:48:14;;;;;;;9.27;7.30;;;;;;;32.35;33.83;101676.66;4993126;28;124611;-82
2022/07/20 10:50:42;;;;;;;8.30;6.68;;;;;;;32.48;34.39;101664.16;4995255;28;123122;-82
2022/07/20 10:53:09;;;;;;;8.35;6.78;;;;;;;32.62;34.13;101660.53;5003145;28;118835;-82
2022/07/20 10:55:36;;;;;;;9.25;6.82;;;;;;;32.76;34.27;101667.88;5011226;28;117277;-81
2022/07/20 10:58:15;;;;;;;8.85;7.03;;;;;;;32.90;33.96;101667.97;5010877;28;125215;-81
2022/07/20 11:00:56;;;;;;;12.52;6.93;;;;;;;33.08;33.71;101659.28;5003229;28;123192;-81
2022/07/20 11:03:29;;;;;;;8.93;6.63;;;;;;;33.19;33.69;101644.19;4994836;28;118678;-82
2022/07/20 11:06:02;;;;;;;8.20;6.47;;;;;;;33.28;33.70;101649.31;4987750;28;120717;-83
2022/07/20 11:08:32;;;;;;;8.80;6.45;;;;;;;33.44;33.71;101656.41;4993853;28;124255;-83
2022/07/20 11:11:01;;;;;;;10.32;6.50;;;;;;;33.58;33.39;101653.75;4993973;28;124238;-83
2022/07/20 11:13:29;;;;;;;9.38;6.18;;;;;;;33.66;32.86;101651.72;4992434;28;119267;-82
2022/07/20 11:15:59;;;;;;;9.85;6.32;;;;;;;33.71;32.84;101648.34;4993269;28;119549;-83
2022/07/20 11:18:33;;;;;;;8.88;6.50;;;;;;;33.75;32.88;101646.88;4988164;28;123855;-83
2022/07/20 11:21:05;;;;;;;6.55;5.88;;;;;;;33.77;32.61;101636.53;4974372;28;124702;-83
2022/07/20 11:23:40;;;;;;;10.75;6.10;;;;;;;33.79;32.85;101644.59;4973057;28;118509;-83